sensor_id;sensor_type;location;lat;lon;timestamp;P1;durP1;ratioP1;P2;durP2;ratioP2
61962;SDS011;47927;42.646;23.096;2022-09-24T00:00:58;3.42;;;1.65;;
61962;SDS011;47927;42.646;23.096;2022-09-24T00:03:32;3.53;;;1.75;;
61962;SDS011;47927;42.646;23.096;2022-09-24T00:06:00;3.83;;;1.90;;
61962;SDS011;47927;42.646;23.096;2022-09-24T00:08:27;2.97;;;1.52;;
61962;SDS011;47927;42.646;23.096;2022-09-24T00:10:52;3.70;;;1.50;;
61962;SDS011;47927;42.646;23.096;2022-09-24T00:13:20;3.50;;;1.77;;
61962;SDS011;47927;42.646;23.096;2022-09-24T00:15:47;3.33;;;1.60;;
61962;SDS011;47927;42.646;23.096;2022-09-24T00:18:14;4.70;;;2.30;;
61962;SDS011;47927;42.646;23.096;2022-09-24T00:20:41;2.35;;;1.50;;
61962;SDS011;47927;42.646;23.096;2022-09-24T00:23:07;2.47;;;1.50;;
61962;SDS011;47927;42.646;23.096;2022-09-24T00:25:39;4.00;;;1.83;;
61962;SDS011;47927;42.646;23.096;2022-09-24T00:28:24;2.97;;;1.67;;
61962;SDS011;47927;42.646;23.096;2022-09-24T00:30:50;2.13;;;1.42;;
61962;SDS011;47927;42.646;23.096;2022-09-24T00:33:16;4.00;;;1.80;;
61962;SDS011;47927;42.646;23.096;2022-09-24T00:35:42;4.68;;;2.00;;
61962;SDS011;47927;42.646;23.096;2022-09-24T00:38:07;4.75;;;2.30;;
61962;SDS011;47927;42.646;23.096;2022-09-24T00:40:34;3.65;;;1.60;;
61962;SDS011;47927;42.646;23.096;2022-09-24T00:43:01;3.20;;;1.65;;
61962;SDS011;47927;42.646;23.096;2022-09-24T00:45:27;3.30;;;1.77;;
61962;SDS011;47927;42.646;23.096;2022-09-24T00:47:55;3.22;;;1.77;;
61962;SDS011;47927;42.646;23.096;2022-09-24T00:50:23;3.42;;;2.00;;
61962;SDS011;47927;42.646;23.096;2022-09-24T00:53:00;3.03;;;1.70;;
61962;SDS011;47927;42.646;23.096;2022-09-24T00:55:32;2.90;;;1.60;;
61962;SDS011;47927;42.646;23.096;2022-09-24T00:57:59;3.38;;;1.90;;
61962;SDS011;47927;42.646;23.096;2022-09-24T01:00:27;3.65;;;2.10;;
61962;SDS011;47927;42.646;23.096;2022-09-24T01:03:16;7.50;;;2.45;;
61962;SDS011;47927;42.646;23.096;2022-09-24T01:05:42;3.47;;;1.60;;
61962;SDS011;47927;42.646;23.096;2022-09-24T01:08:12;3.67;;;1.70;;
61962;SDS011;47927;42.646;23.096;2022-09-24T01:10:41;4.18;;;2.28;;
61962;SDS011;47927;42.646;23.096;2022-09-24T01:15:52;3.90;;;1.77;;
61962;SDS011;47927;42.646;23.096;2022-09-24T01:32:37;3.67;;;1.60;;
61962;SDS011;47927;42.646;23.096;2022-09-24T01:35:28;4.20;;;1.80;;
61962;SDS011;47927;42.646;23.096;2022-09-24T01:38:05;4.10;;;1.85;;
61962;SDS011;47927;42.646;23.096;2022-09-24T01:40:36;3.85;;;1.85;;
61962;SDS011;47927;42.646;23.096;2022-09-24T01:43:03;3.35;;;1.80;;
61962;SDS011;47927;42.646;23.096;2022-09-24T01:45:31;3.20;;;1.70;;
61962;SDS011;47927;42.646;23.096;2022-09-24T01:47:59;6.80;;;1.92;;
61962;SDS011;47927;42.646;23.096;2022-09-24T01:50:25;3.25;;;1.77;;
61962;SDS011;47927;42.646;23.096;2022-09-24T01:52:59;3.40;;;1.70;;
61962;SDS011;47927;42.646;23.096;2022-09-24T01:55:34;3.75;;;1.80;;
61962;SDS011;47927;42.646;23.096;2022-09-24T01:58:06;5.07;;;2.20;;
61962;SDS011;47927;42.646;23.096;2022-09-24T02:00:38;3.80;;;1.83;;
61962;SDS011;47927;42.646;23.096;2022-09-24T02:03:18;2.25;;;1.15;;
61962;SDS011;47927;42.646;23.096;2022-09-24T02:08:24;3.20;;;1.40;;
61962;SDS011;47927;42.646;23.096;2022-09-24T02:11:00;3.30;;;1.65;;
61962;SDS011;47927;42.646;23.096;2022-09-24T02:13:36;3.58;;;1.83;;
61962;SDS011;47927;42.646;23.096;2022-09-24T02:16:07;3.60;;;1.98;;
61962;SDS011;47927;42.646;23.096;2022-09-24T02:18:36;4.53;;;1.67;;
61962;SDS011;47927;42.646;23.096;2022-09-24T02:21:09;3.72;;;1.92;;
61962;SDS011;47927;42.646;23.096;2022-09-24T02:23:39;2.90;;;1.67;;
61962;SDS011;47927;42.646;23.096;2022-09-24T02:26:11;6.43;;;1.58;;
61962;SDS011;47927;42.646;23.096;2022-09-24T02:28:36;3.88;;;1.63;;
61962;SDS011;47927;42.646;23.096;2022-09-24T02:31:25;3.10;;;1.65;;
61962;SDS011;47927;42.646;23.096;2022-09-24T02:33:54;4.82;;;1.65;;
61962;SDS011;47927;42.646;23.096;2022-09-24T02:36:42;3.58;;;1.83;;
61962;SDS011;47927;42.646;23.096;2022-09-24T02:39:07;2.55;;;1.40;;
61962;SDS011;47927;42.646;23.096;2022-09-24T02:41:33;3.53;;;1.83;;
61962;SDS011;47927;42.646;23.096;2022-09-24T02:44:00;5.13;;;1.92;;
61962;SDS011;47927;42.646;23.096;2022-09-24T02:46:44;2.90;;;1.42;;
61962;SDS011;47927;42.646;23.096;2022-09-24T02:49:11;3.33;;;1.80;;
61962;SDS011;47927;42.646;23.096;2022-09-24T02:51:38;4.00;;;1.92;;
61962;SDS011;47927;42.646;23.096;2022-09-24T02:54:05;4.03;;;1.50;;
61962;SDS011;47927;42.646;23.096;2022-09-24T02:56:31;3.80;;;1.70;;
61962;SDS011;47927;42.646;23.096;2022-09-24T02:58:57;2.67;;;1.30;;
61962;SDS011;47927;42.646;23.096;2022-09-24T03:01:23;2.50;;;1.30;;
61962;SDS011;47927;42.646;23.096;2022-09-24T03:03:49;2.50;;;1.30;;
61962;SDS011;47927;42.646;23.096;2022-09-24T03:06:15;2.88;;;1.40;;
61962;SDS011;47927;42.646;23.096;2022-09-24T03:08:41;3.70;;;1.88;;
61962;SDS011;47927;42.646;23.096;2022-09-24T03:11:07;3.22;;;1.55;;
61962;SDS011;47927;42.646;23.096;2022-09-24T03:13:34;2.88;;;1.50;;
61962;SDS011;47927;42.646;23.096;2022-09-24T03:16:00;2.30;;;1.23;;
61962;SDS011;47927;42.646;23.096;2022-09-24T03:18:25;2.80;;;1.48;;
61962;SDS011;47927;42.646;23.096;2022-09-24T03:20:54;2.30;;;1.40;;
61962;SDS011;47927;42.646;23.096;2022-09-24T03:23:27;4.68;;;1.40;;
61962;SDS011;47927;42.646;23.096;2022-09-24T03:25:53;2.65;;;1.30;;
61962;SDS011;47927;42.646;23.096;2022-09-24T03:28:19;4.32;;;1.67;;
61962;SDS011;47927;42.646;23.096;2022-09-24T03:30:45;2.30;;;1.20;;
61962;SDS011;47927;42.646;23.096;2022-09-24T03:35:59;2.22;;;1.30;;
61962;SDS011;47927;42.646;23.096;2022-09-24T03:38:27;2.45;;;1.23;;
61962;SDS011;47927;42.646;23.096;2022-09-24T03:40:54;2.55;;;1.30;;
61962;SDS011;47927;42.646;23.096;2022-09-24T03:43:22;3.33;;;1.48;;
61962;SDS011;47927;42.646;23.096;2022-09-24T03:45:48;4.22;;;1.83;;
61962;SDS011;47927;42.646;23.096;2022-09-24T03:48:14;3.40;;;1.73;;
61962;SDS011;47927;42.646;23.096;2022-09-24T03:50:41;4.10;;;1.77;;
61962;SDS011;47927;42.646;23.096;2022-09-24T03:53:08;3.75;;;1.90;;
61962;SDS011;47927;42.646;23.096;2022-09-24T03:55:33;3.33;;;1.70;;
61962;SDS011;47927;42.646;23.096;2022-09-24T03:57:59;3.63;;;2.00;;
61962;SDS011;47927;42.646;23.096;2022-09-24T04:00:25;4.00;;;1.95;;
61962;SDS011;47927;42.646;23.096;2022-09-24T04:02:51;3.83;;;2.00;;
61962;SDS011;47927;42.646;23.096;2022-09-24T04:05:17;3.95;;;2.00;;
61962;SDS011;47927;42.646;23.096;2022-09-24T04:07:43;3.13;;;1.88;;
61962;SDS011;47927;42.646;23.096;2022-09-24T04:10:09;4.18;;;1.73;;
61962;SDS011;47927;42.646;23.096;2022-09-24T04:12:35;6.80;;;1.98;;
61962;SDS011;47927;42.646;23.096;2022-09-24T04:15:01;4.60;;;2.42;;
61962;SDS011;47927;42.646;23.096;2022-09-24T04:17:29;3.33;;;2.00;;
61962;SDS011;47927;42.646;23.096;2022-09-24T04:19:58;5.03;;;2.03;;
61962;SDS011;47927;42.646;23.096;2022-09-24T04:22:24;3.53;;;2.05;;
61962;SDS011;47927;42.646;23.096;2022-09-24T04:24:50;3.25;;;1.77;;
61962;SDS011;47927;42.646;23.096;2022-09-24T04:27:16;4.88;;;2.03;;
61962;SDS011;47927;42.646;23.096;2022-09-24T04:29:42;3.55;;;1.80;;
61962;SDS011;47927;42.646;23.096;2022-09-24T04:32:08;3.38;;;2.10;;
61962;SDS011;47927;42.646;23.096;2022-09-24T04:34:34;3.38;;;1.83;;
61962;SDS011;47927;42.646;23.096;2022-09-24T04:36:59;4.50;;;2.10;;
61962;SDS011;47927;42.646;23.096;2022-09-24T04:39:25;3.33;;;1.65;;
61962;SDS011;47927;42.646;23.096;2022-09-24T04:41:52;3.83;;;1.70;;
61962;SDS011;47927;42.646;23.096;2022-09-24T04:44:18;4.38;;;1.80;;
61962;SDS011;47927;42.646;23.096;2022-09-24T04:46:44;5.40;;;2.10;;
61962;SDS011;47927;42.646;23.096;2022-09-24T04:49:10;4.60;;;2.42;;
61962;SDS011;47927;42.646;23.096;2022-09-24T04:51:36;5.72;;;2.58;;
61962;SDS011;47927;42.646;23.096;2022-09-24T04:54:01;4.07;;;2.33;;
61962;SDS011;47927;42.646;23.096;2022-09-24T04:56:27;2.60;;;1.70;;
61962;SDS011;47927;42.646;23.096;2022-09-24T04:58:53;4.90;;;1.90;;
61962;SDS011;47927;42.646;23.096;2022-09-24T05:01:19;3.00;;;1.88;;
61962;SDS011;47927;42.646;23.096;2022-09-24T05:03:45;7.47;;;1.83;;
61962;SDS011;47927;42.646;23.096;2022-09-24T05:06:11;3.47;;;1.95;;
61962;SDS011;47927;42.646;23.096;2022-09-24T05:08:36;3.17;;;1.60;;
61962;SDS011;47927;42.646;23.096;2022-09-24T05:11:02;3.40;;;2.20;;
61962;SDS011;47927;42.646;23.096;2022-09-24T05:13:27;4.72;;;2.35;;
61962;SDS011;47927;42.646;23.096;2022-09-24T05:15:53;3.33;;;1.98;;
61962;SDS011;47927;42.646;23.096;2022-09-24T05:18:19;4.22;;;2.40;;
61962;SDS011;47927;42.646;23.096;2022-09-24T05:20:44;3.53;;;2.20;;
61962;SDS011;47927;42.646;23.096;2022-09-24T05:23:10;3.35;;;2.15;;
61962;SDS011;47927;42.646;23.096;2022-09-24T05:25:36;4.00;;;2.30;;
61962;SDS011;47927;42.646;23.096;2022-09-24T05:28:39;3.58;;;2.30;;
61962;SDS011;47927;42.646;23.096;2022-09-24T05:31:07;6.70;;;2.70;;
61962;SDS011;47927;42.646;23.096;2022-09-24T05:33:33;3.92;;;2.83;;
61962;SDS011;47927;42.646;23.096;2022-09-24T05:35:58;4.90;;;2.90;;
61962;SDS011;47927;42.646;23.096;2022-09-24T05:38:24;4.72;;;2.85;;
61962;SDS011;47927;42.646;23.096;2022-09-24T05:40:50;4.85;;;2.90;;
61962;SDS011;47927;42.646;23.096;2022-09-24T05:43:16;6.95;;;3.70;;
61962;SDS011;47927;42.646;23.096;2022-09-24T05:45:44;8.18;;;3.80;;
61962;SDS011;47927;42.646;23.096;2022-09-24T05:48:10;12.23;;;5.45;;
61962;SDS011;47927;42.646;23.096;2022-09-24T05:50:35;41.50;;;22.90;;
61962;SDS011;47927;42.646;23.096;2022-09-24T05:53:01;11.20;;;5.25;;
61962;SDS011;47927;42.646;23.096;2022-09-24T05:55:28;10.68;;;5.20;;
61962;SDS011;47927;42.646;23.096;2022-09-24T05:57:54;14.32;;;9.45;;
61962;SDS011;47927;42.646;23.096;2022-09-24T06:00:19;13.52;;;8.32;;
61962;SDS011;47927;42.646;23.096;2022-09-24T06:02:45;12.18;;;5.90;;
61962;SDS011;47927;42.646;23.096;2022-09-24T06:05:11;11.20;;;6.45;;
61962;SDS011;47927;42.646;23.096;2022-09-24T06:07:37;12.73;;;5.85;;
61962;SDS011;47927;42.646;23.096;2022-09-24T06:10:03;11.20;;;5.75;;
61962;SDS011;47927;42.646;23.096;2022-09-24T06:12:31;11.23;;;6.18;;
61962;SDS011;47927;42.646;23.096;2022-09-24T06:14:59;10.65;;;5.90;;
61962;SDS011;47927;42.646;23.096;2022-09-24T06:17:25;11.75;;;6.97;;
61962;SDS011;47927;42.646;23.096;2022-09-24T06:19:51;10.18;;;5.78;;
61962;SDS011;47927;42.646;23.096;2022-09-24T06:22:16;11.07;;;5.55;;
61962;SDS011;47927;42.646;23.096;2022-09-24T06:24:42;12.00;;;6.35;;
61962;SDS011;47927;42.646;23.096;2022-09-24T06:27:07;10.13;;;5.80;;
61962;SDS011;47927;42.646;23.096;2022-09-24T06:29:33;11.55;;;5.53;;
61962;SDS011;47927;42.646;23.096;2022-09-24T06:31:59;13.60;;;6.03;;
61962;SDS011;47927;42.646;23.096;2022-09-24T06:34:26;10.98;;;5.72;;
61962;SDS011;47927;42.646;23.096;2022-09-24T06:36:54;11.60;;;6.55;;
61962;SDS011;47927;42.646;23.096;2022-09-24T06:41:51;13.45;;;6.63;;
61962;SDS011;47927;42.646;23.096;2022-09-24T06:44:17;11.85;;;6.57;;
61962;SDS011;47927;42.646;23.096;2022-09-24T06:46:43;9.52;;;6.07;;
61962;SDS011;47927;42.646;23.096;2022-09-24T06:49:09;12.98;;;7.45;;
61962;SDS011;47927;42.646;23.096;2022-09-24T06:51:36;12.32;;;6.45;;
61962;SDS011;47927;42.646;23.096;2022-09-24T06:54:02;14.32;;;7.00;;
61962;SDS011;47927;42.646;23.096;2022-09-24T06:56:27;13.88;;;6.45;;
61962;SDS011;47927;42.646;23.096;2022-09-24T06:58:53;9.82;;;5.93;;
61962;SDS011;47927;42.646;23.096;2022-09-24T07:01:19;14.35;;;6.53;;
61962;SDS011;47927;42.646;23.096;2022-09-24T07:03:45;13.93;;;7.13;;
61962;SDS011;47927;42.646;23.096;2022-09-24T07:06:10;11.82;;;6.43;;
61962;SDS011;47927;42.646;23.096;2022-09-24T07:08:36;16.00;;;7.30;;
61962;SDS011;47927;42.646;23.096;2022-09-24T07:11:02;15.30;;;8.95;;
61962;SDS011;47927;42.646;23.096;2022-09-24T07:13:28;17.58;;;7.97;;
61962;SDS011;47927;42.646;23.096;2022-09-24T07:15:54;13.07;;;7.40;;
61962;SDS011;47927;42.646;23.096;2022-09-24T07:18:20;12.75;;;7.15;;
61962;SDS011;47927;42.646;23.096;2022-09-24T07:20:55;16.85;;;7.72;;
61962;SDS011;47927;42.646;23.096;2022-09-24T07:23:21;8.73;;;5.68;;
61962;SDS011;47927;42.646;23.096;2022-09-24T07:25:47;11.07;;;6.40;;
61962;SDS011;47927;42.646;23.096;2022-09-24T07:28:13;13.98;;;6.40;;
61962;SDS011;47927;42.646;23.096;2022-09-24T07:30:43;13.55;;;5.78;;
61962;SDS011;47927;42.646;23.096;2022-09-24T07:33:09;12.10;;;6.18;;
61962;SDS011;47927;42.646;23.096;2022-09-24T07:35:38;13.15;;;7.75;;
61962;SDS011;47927;42.646;23.096;2022-09-24T07:38:05;16.42;;;9.15;;
61962;SDS011;47927;42.646;23.096;2022-09-24T07:40:32;13.27;;;7.50;;
61962;SDS011;47927;42.646;23.096;2022-09-24T07:42:58;14.25;;;7.63;;
61962;SDS011;47927;42.646;23.096;2022-09-24T07:45:25;13.90;;;7.70;;
61962;SDS011;47927;42.646;23.096;2022-09-24T07:48:00;15.85;;;6.88;;
61962;SDS011;47927;42.646;23.096;2022-09-24T07:50:27;12.75;;;5.90;;
61962;SDS011;47927;42.646;23.096;2022-09-24T07:52:54;15.27;;;5.93;;
61962;SDS011;47927;42.646;23.096;2022-09-24T07:55:21;8.27;;;5.15;;
61962;SDS011;47927;42.646;23.096;2022-09-24T07:57:50;10.35;;;5.03;;
61962;SDS011;47927;42.646;23.096;2022-09-24T08:00:17;6.95;;;4.60;;
61962;SDS011;47927;42.646;23.096;2022-09-24T08:02:45;13.40;;;4.40;;
61962;SDS011;47927;42.646;23.096;2022-09-24T08:05:11;10.43;;;4.18;;
61962;SDS011;47927;42.646;23.096;2022-09-24T08:07:38;5.45;;;3.45;;
61962;SDS011;47927;42.646;23.096;2022-09-24T08:10:03;8.30;;;3.10;;
61962;SDS011;47927;42.646;23.096;2022-09-24T08:12:29;6.90;;;3.17;;
61962;SDS011;47927;42.646;23.096;2022-09-24T08:14:55;4.28;;;2.80;;
61962;SDS011;47927;42.646;23.096;2022-09-24T08:17:20;6.82;;;3.00;;
61962;SDS011;47927;42.646;23.096;2022-09-24T08:19:46;5.05;;;3.00;;
61962;SDS011;47927;42.646;23.096;2022-09-24T08:22:12;6.38;;;3.55;;
61962;SDS011;47927;42.646;23.096;2022-09-24T08:24:38;7.68;;;3.38;;
61962;SDS011;47927;42.646;23.096;2022-09-24T08:27:06;9.25;;;3.55;;
61962;SDS011;47927;42.646;23.096;2022-09-24T08:29:32;6.57;;;3.30;;
61962;SDS011;47927;42.646;23.096;2022-09-24T08:31:57;3.60;;;2.70;;
61962;SDS011;47927;42.646;23.096;2022-09-24T08:34:23;5.22;;;2.72;;
61962;SDS011;47927;42.646;23.096;2022-09-24T08:36:49;4.70;;;2.30;;
61962;SDS011;47927;42.646;23.096;2022-09-24T08:39:14;3.80;;;2.50;;
61962;SDS011;47927;42.646;23.096;2022-09-24T08:44:19;4.38;;;2.22;;
61962;SDS011;47927;42.646;23.096;2022-09-24T08:50:11;3.67;;;2.60;;
61962;SDS011;47927;42.646;23.096;2022-09-24T08:52:45;6.68;;;2.50;;
61962;SDS011;47927;42.646;23.096;2022-09-24T08:58:27;7.38;;;2.80;;
61962;SDS011;47927;42.646;23.096;2022-09-24T09:00:50;2.35;;;1.95;;
61962;SDS011;47927;42.646;23.096;2022-09-24T09:03:26;3.97;;;1.95;;
61962;SDS011;47927;42.646;23.096;2022-09-24T09:06:11;2.90;;;2.30;;
61962;SDS011;47927;42.646;23.096;2022-09-24T09:11:34;2.70;;;1.90;;
61962;SDS011;47927;42.646;23.096;2022-09-24T09:16:36;22.25;;;3.63;;
61962;SDS011;47927;42.646;23.096;2022-09-24T09:19:11;3.22;;;1.92;;
61962;SDS011;47927;42.646;23.096;2022-09-24T09:21:42;4.57;;;1.92;;
61962;SDS011;47927;42.646;23.096;2022-09-24T09:24:20;4.53;;;2.03;;
61962;SDS011;47927;42.646;23.096;2022-09-24T09:26:52;2.85;;;2.08;;
61962;SDS011;47927;42.646;23.096;2022-09-24T09:29:23;5.85;;;2.20;;
61962;SDS011;47927;42.646;23.096;2022-09-24T09:42:24;2.63;;;1.90;;
61962;SDS011;47927;42.646;23.096;2022-09-24T09:44:53;2.35;;;1.80;;
61962;SDS011;47927;42.646;23.096;2022-09-24T09:47:39;4.13;;;2.20;;
61962;SDS011;47927;42.646;23.096;2022-09-24T09:52:50;3.55;;;2.10;;
61962;SDS011;47927;42.646;23.096;2022-09-24T09:55:26;8.15;;;2.67;;
61962;SDS011;47927;42.646;23.096;2022-09-24T09:58:00;5.80;;;2.00;;
61962;SDS011;47927;42.646;23.096;2022-09-24T10:03:00;3.08;;;1.70;;
61962;SDS011;47927;42.646;23.096;2022-09-24T10:05:27;2.97;;;1.90;;
61962;SDS011;47927;42.646;23.096;2022-09-24T10:07:54;3.13;;;2.00;;
61962;SDS011;47927;42.646;23.096;2022-09-24T10:10:27;2.80;;;1.95;;
61962;SDS011;47927;42.646;23.096;2022-09-24T10:13:06;3.92;;;2.10;;
61962;SDS011;47927;42.646;23.096;2022-09-24T10:15:33;2.92;;;1.88;;
61962;SDS011;47927;42.646;23.096;2022-09-24T10:18:03;4.10;;;2.15;;
61962;SDS011;47927;42.646;23.096;2022-09-24T10:20:32;3.60;;;2.00;;
61962;SDS011;47927;42.646;23.096;2022-09-24T10:22:59;4.00;;;2.00;;
61962;SDS011;47927;42.646;23.096;2022-09-24T10:25:31;2.80;;;1.88;;
61962;SDS011;47927;42.646;23.096;2022-09-24T10:28:13;5.28;;;1.92;;
61962;SDS011;47927;42.646;23.096;2022-09-24T10:31:16;3.08;;;1.80;;
61962;SDS011;47927;42.646;23.096;2022-09-24T10:33:46;2.90;;;1.70;;
61962;SDS011;47927;42.646;23.096;2022-09-24T10:38:42;3.35;;;2.10;;
61962;SDS011;47927;42.646;23.096;2022-09-24T10:41:15;3.55;;;1.50;;
61962;SDS011;47927;42.646;23.096;2022-09-24T10:43:52;2.88;;;1.70;;
61962;SDS011;47927;42.646;23.096;2022-09-24T11:00:18;5.15;;;1.77;;
61962;SDS011;47927;42.646;23.096;2022-09-24T11:05:44;3.70;;;1.60;;
61962;SDS011;47927;42.646;23.096;2022-09-24T11:19:21;3.00;;;1.80;;
61962;SDS011;47927;42.646;23.096;2022-09-24T11:21:57;3.30;;;1.63;;
61962;SDS011;47927;42.646;23.096;2022-09-24T11:38:24;2.88;;;1.42;;
61962;SDS011;47927;42.646;23.096;2022-09-24T11:41:19;4.18;;;1.60;;
61962;SDS011;47927;42.646;23.096;2022-09-24T11:47:05;3.40;;;1.77;;
61962;SDS011;47927;42.646;23.096;2022-09-24T11:49:45;9.70;;;2.00;;
61962;SDS011;47927;42.646;23.096;2022-09-24T11:52:32;21.73;;;3.15;;
61962;SDS011;47927;42.646;23.096;2022-09-24T11:55:04;3.35;;;1.60;;
61962;SDS011;47927;42.646;23.096;2022-09-24T11:57:40;4.10;;;1.77;;
61962;SDS011;47927;42.646;23.096;2022-09-24T12:00:18;2.58;;;1.58;;
61962;SDS011;47927;42.646;23.096;2022-09-24T12:02:53;2.47;;;1.58;;
61962;SDS011;47927;42.646;23.096;2022-09-24T12:05:38;5.03;;;1.90;;
61962;SDS011;47927;42.646;23.096;2022-09-24T12:08:13;2.45;;;1.60;;
61962;SDS011;47927;42.646;23.096;2022-09-24T12:10:47;3.20;;;1.73;;
61962;SDS011;47927;42.646;23.096;2022-09-24T12:13:36;5.82;;;1.77;;
61962;SDS011;47927;42.646;23.096;2022-09-24T12:16:19;3.38;;;1.70;;
61962;SDS011;47927;42.646;23.096;2022-09-24T12:21:38;2.10;;;1.50;;
61962;SDS011;47927;42.646;23.096;2022-09-24T12:24:10;4.22;;;1.60;;
61962;SDS011;47927;42.646;23.096;2022-09-24T12:26:37;3.83;;;1.90;;
61962;SDS011;47927;42.646;23.096;2022-09-24T12:37:46;3.13;;;1.70;;
61962;SDS011;47927;42.646;23.096;2022-09-24T12:42:57;2.92;;;1.50;;
61962;SDS011;47927;42.646;23.096;2022-09-24T12:45:26;2.38;;;1.40;;
61962;SDS011;47927;42.646;23.096;2022-09-24T12:47:53;4.43;;;1.58;;
61962;SDS011;47927;42.646;23.096;2022-09-24T12:50:26;2.55;;;1.70;;
61962;SDS011;47927;42.646;23.096;2022-09-24T12:52:54;2.45;;;1.63;;
61962;SDS011;47927;42.646;23.096;2022-09-24T12:55:24;3.80;;;1.67;;
61962;SDS011;47927;42.646;23.096;2022-09-24T12:57:57;3.13;;;1.75;;
61962;SDS011;47927;42.646;23.096;2022-09-24T13:00:43;4.38;;;2.50;;
61962;SDS011;47927;42.646;23.096;2022-09-24T13:14:30;2.10;;;1.33;;
61962;SDS011;47927;42.646;23.096;2022-09-24T13:16:57;2.28;;;1.40;;
61962;SDS011;47927;42.646;23.096;2022-09-24T13:19:39;4.00;;;1.60;;
61962;SDS011;47927;42.646;23.096;2022-09-24T13:27:38;4.10;;;1.65;;
61962;SDS011;47927;42.646;23.096;2022-09-24T13:32:48;11.77;;;1.98;;
61962;SDS011;47927;42.646;23.096;2022-09-24T13:35:27;4.38;;;1.20;;
61962;SDS011;47927;42.646;23.096;2022-09-24T13:38:28;1.80;;;1.20;;
61962;SDS011;47927;42.646;23.096;2022-09-24T13:43:46;2.90;;;1.67;;
61962;SDS011;47927;42.646;23.096;2022-09-24T13:46:16;3.38;;;1.90;;
61962;SDS011;47927;42.646;23.096;2022-09-24T13:48:48;3.33;;;1.80;;
61962;SDS011;47927;42.646;23.096;2022-09-24T13:51:17;35.88;;;2.80;;
61962;SDS011;47927;42.646;23.096;2022-09-24T13:53:51;4.07;;;1.73;;
61962;SDS011;47927;42.646;23.096;2022-09-24T13:56:30;5.78;;;1.70;;
61962;SDS011;47927;42.646;23.096;2022-09-24T13:59:03;2.70;;;1.40;;
61962;SDS011;47927;42.646;23.096;2022-09-24T14:01:39;2.38;;;1.40;;
61962;SDS011;47927;42.646;23.096;2022-09-24T14:04:19;3.88;;;1.40;;
61962;SDS011;47927;42.646;23.096;2022-09-24T14:06:50;5.60;;;1.60;;
61962;SDS011;47927;42.646;23.096;2022-09-24T14:09:28;2.90;;;1.52;;
61962;SDS011;47927;42.646;23.096;2022-09-24T14:11:59;2.50;;;1.58;;
61962;SDS011;47927;42.646;23.096;2022-09-24T14:14:54;3.13;;;1.63;;
61962;SDS011;47927;42.646;23.096;2022-09-24T14:17:22;7.13;;;1.60;;
61962;SDS011;47927;42.646;23.096;2022-09-24T14:19:52;18.52;;;3.30;;
61962;SDS011;47927;42.646;23.096;2022-09-24T14:22:20;3.15;;;1.50;;
61962;SDS011;47927;42.646;23.096;2022-09-24T14:24:58;6.47;;;1.40;;
61962;SDS011;47927;42.646;23.096;2022-09-24T14:27:27;3.47;;;1.40;;
61962;SDS011;47927;42.646;23.096;2022-09-24T14:30:03;2.17;;;1.30;;
61962;SDS011;47927;42.646;23.096;2022-09-24T14:32:37;2.85;;;1.70;;
61962;SDS011;47927;42.646;23.096;2022-09-24T14:35:06;2.67;;;1.70;;
61962;SDS011;47927;42.646;23.096;2022-09-24T14:37:45;2.10;;;1.35;;
61962;SDS011;47927;42.646;23.096;2022-09-24T14:40:16;3.47;;;1.40;;
61962;SDS011;47927;42.646;23.096;2022-09-24T14:42:47;1.85;;;1.30;;
61962;SDS011;47927;42.646;23.096;2022-09-24T14:45:18;2.05;;;1.48;;
61962;SDS011;47927;42.646;23.096;2022-09-24T14:47:46;3.92;;;1.80;;
61962;SDS011;47927;42.646;23.096;2022-09-24T14:53:11;3.58;;;1.70;;
61962;SDS011;47927;42.646;23.096;2022-09-24T14:55:45;5.82;;;1.58;;
61962;SDS011;47927;42.646;23.096;2022-09-24T14:58:24;3.08;;;1.60;;
61962;SDS011;47927;42.646;23.096;2022-09-24T15:00:54;3.90;;;1.40;;
61962;SDS011;47927;42.646;23.096;2022-09-24T15:04:22;2.55;;;1.38;;
61962;SDS011;47927;42.646;23.096;2022-09-24T15:06:25;2.22;;;1.48;;
61962;SDS011;47927;42.646;23.096;2022-09-24T15:08:54;2.30;;;1.38;;
61962;SDS011;47927;42.646;23.096;2022-09-24T15:11:23;2.38;;;1.50;;
61962;SDS011;47927;42.646;23.096;2022-09-24T15:16:27;2.83;;;1.50;;
61962;SDS011;47927;42.646;23.096;2022-09-24T15:19:00;5.30;;;1.50;;
61962;SDS011;47927;42.646;23.096;2022-09-24T15:21:37;3.15;;;1.63;;
61962;SDS011;47927;42.646;23.096;2022-09-24T15:24:03;2.88;;;1.38;;
61962;SDS011;47927;42.646;23.096;2022-09-24T15:26:30;3.28;;;1.45;;
61962;SDS011;47927;42.646;23.096;2022-09-24T15:28:58;2.63;;;1.40;;
61962;SDS011;47927;42.646;23.096;2022-09-24T15:31:24;2.28;;;1.33;;
61962;SDS011;47927;42.646;23.096;2022-09-24T15:33:50;3.40;;;1.67;;
61962;SDS011;47927;42.646;23.096;2022-09-24T15:36:16;2.85;;;1.20;;
61962;SDS011;47927;42.646;23.096;2022-09-24T15:38:47;3.33;;;1.65;;
61962;SDS011;47927;42.646;23.096;2022-09-24T15:41:15;4.00;;;2.00;;
61962;SDS011;47927;42.646;23.096;2022-09-24T15:43:41;4.55;;;1.95;;
61962;SDS011;47927;42.646;23.096;2022-09-24T15:46:07;3.35;;;1.70;;
61962;SDS011;47927;42.646;23.096;2022-09-24T15:48:32;6.45;;;1.70;;
61962;SDS011;47927;42.646;23.096;2022-09-24T15:50:57;2.67;;;1.70;;
61962;SDS011;47927;42.646;23.096;2022-09-24T15:53:26;2.28;;;1.50;;
61962;SDS011;47927;42.646;23.096;2022-09-24T15:55:57;3.60;;;1.83;;
61962;SDS011;47927;42.646;23.096;2022-09-24T15:58:25;4.90;;;1.70;;
61962;SDS011;47927;42.646;23.096;2022-09-24T16:00:51;3.88;;;1.60;;
61962;SDS011;47927;42.646;23.096;2022-09-24T16:03:21;3.97;;;2.30;;
61962;SDS011;47927;42.646;23.096;2022-09-24T16:05:49;4.57;;;1.98;;
61962;SDS011;47927;42.646;23.096;2022-09-24T16:08:15;4.90;;;2.08;;
61962;SDS011;47927;42.646;23.096;2022-09-24T16:10:41;4.68;;;3.08;;
61962;SDS011;47927;42.646;23.096;2022-09-24T16:13:08;3.97;;;2.47;;
61962;SDS011;47927;42.646;23.096;2022-09-24T16:15:35;4.43;;;2.42;;
61962;SDS011;47927;42.646;23.096;2022-09-24T16:18:00;3.75;;;2.38;;
61962;SDS011;47927;42.646;23.096;2022-09-24T16:20:26;4.15;;;2.13;;
61962;SDS011;47927;42.646;23.096;2022-09-24T16:22:52;5.72;;;2.53;;
61962;SDS011;47927;42.646;23.096;2022-09-24T16:25:17;5.22;;;1.92;;
61962;SDS011;47927;42.646;23.096;2022-09-24T16:27:43;3.13;;;1.98;;
61962;SDS011;47927;42.646;23.096;2022-09-24T16:30:09;4.90;;;2.25;;
61962;SDS011;47927;42.646;23.096;2022-09-24T16:32:35;4.38;;;2.38;;
61962;SDS011;47927;42.646;23.096;2022-09-24T16:35:00;3.58;;;2.05;;
61962;SDS011;47927;42.646;23.096;2022-09-24T16:37:26;8.68;;;2.40;;
61962;SDS011;47927;42.646;23.096;2022-09-24T16:39:52;5.88;;;2.33;;
61962;SDS011;47927;42.646;23.096;2022-09-24T16:42:17;7.63;;;2.50;;
61962;SDS011;47927;42.646;23.096;2022-09-24T16:44:43;4.20;;;2.28;;
61962;SDS011;47927;42.646;23.096;2022-09-24T16:47:08;6.20;;;2.67;;
61962;SDS011;47927;42.646;23.096;2022-09-24T16:49:34;7.00;;;2.65;;
61962;SDS011;47927;42.646;23.096;2022-09-24T16:52:00;3.80;;;2.28;;
61962;SDS011;47927;42.646;23.096;2022-09-24T16:54:28;4.72;;;2.55;;
61962;SDS011;47927;42.646;23.096;2022-09-24T16:56:55;4.53;;;2.55;;
61962;SDS011;47927;42.646;23.096;2022-09-24T16:59:22;4.45;;;2.38;;
61962;SDS011;47927;42.646;23.096;2022-09-24T17:01:47;4.35;;;2.67;;
61962;SDS011;47927;42.646;23.096;2022-09-24T17:04:13;4.40;;;2.63;;
61962;SDS011;47927;42.646;23.096;2022-09-24T17:06:39;5.10;;;2.58;;
61962;SDS011;47927;42.646;23.096;2022-09-24T17:09:05;8.02;;;2.92;;
61962;SDS011;47927;42.646;23.096;2022-09-24T17:11:50;4.35;;;2.58;;